Flight Briefing for CPX81

Departure Arrival
Kingsford Smith International Airport (YSSY)
Click to view FAA NOTAMS
Daniel K Inouye International Airport (PHNL)
Click to view FAA NOTAMS
Departure Time Arrival Time
N/A N/A
Aircraft Distance
MD-11SF 4417nm
Departure METAR Arrival METAR
YSSY 192230Z 20014KT 9999 SCT006 BKN013 20/19 Q1012 PHNL 192153Z 10010KT 10SM -RA FEW022 SCT035 OVC100 21/19 A2991 RMK AO2 PRESFR SLP128 P0006 T02110189
Suggested Route





View recent IFR Routes data
Notes



Charts and Procedures

Charts for YSSY
No chart available
Charts for PHNL
No chart available

Ventusky Weather




{"cat":null,"equip":null,"transponder":null,"pbn":"PBN\/","maxpax":null,"oew":"0.0","mzfw":"0.0","mtow":"0.0","mlw":"0.0","maxfuel":"0.0"} DEVELOPMENTAL TEST USE ONLY